sensor_id;sensor_type;location;lat;lon;timestamp;temperature;humidity
47921;DHT22;33686;48.770;9.186;2023-10-13T05:17:35;16.20;99.90
47921;DHT22;33686;48.770;9.186;2023-10-13T05:20:19;16.20;99.90
47921;DHT22;33686;48.770;9.186;2023-10-13T05:23:03;16.20;99.90
47921;DHT22;33686;48.770;9.186;2023-10-13T05:25:48;16.20;99.90
47921;DHT22;33686;48.770;9.186;2023-10-13T05:28:32;16.20;99.90
47921;DHT22;33686;48.770;9.186;2023-10-13T05:31:18;16.20;99.90
47921;DHT22;33686;48.770;9.186;2023-10-13T05:34:02;16.20;99.90
47921;DHT22;33686;48.770;9.186;2023-10-13T05:36:46;16.30;99.90
47921;DHT22;33686;48.770;9.186;2023-10-13T05:39:31;16.30;99.90
47921;DHT22;33686;48.770;9.186;2023-10-13T05:42:15;16.30;99.90
47921;DHT22;33686;48.770;9.186;2023-10-13T05:44:59;16.40;99.90
47921;DHT22;33686;48.770;9.186;2023-10-13T05:47:43;16.50;99.90
47921;DHT22;33686;48.770;9.186;2023-10-13T05:50:11;16.50;99.90
47921;DHT22;33686;48.770;9.186;2023-10-13T05:52:46;16.50;99.90
47921;DHT22;33686;48.770;9.186;2023-10-13T05:55:24;16.50;99.90
47921;DHT22;33686;48.770;9.186;2023-10-13T05:58:08;16.50;99.90
47921;DHT22;33686;48.770;9.186;2023-10-13T06:00:53;16.70;99.90
47921;DHT22;33686;48.770;9.186;2023-10-13T06:03:37;16.70;99.90
47921;DHT22;33686;48.770;9.186;2023-10-13T06:06:21;16.80;99.90
47921;DHT22;33686;48.770;9.186;2023-10-13T06:09:05;16.90;99.90
47921;DHT22;33686;48.770;9.186;2023-10-13T06:11:49;17.00;99.90
47921;DHT22;33686;48.770;9.186;2023-10-13T06:14:33;17.10;99.90
47921;DHT22;33686;48.770;9.186;2023-10-13T06:17:17;17.20;99.90
47921;DHT22;33686;48.770;9.186;2023-10-13T06:20:01;17.30;99.90
47921;DHT22;33686;48.770;9.186;2023-10-13T06:22:49;17.60;99.90
47921;DHT22;33686;48.770;9.186;2023-10-13T06:25:33;17.60;99.90
47921;DHT22;33686;48.770;9.186;2023-10-13T06:28:18;17.70;99.90
47921;DHT22;33686;48.770;9.186;2023-10-13T06:31:04;17.70;99.90
47921;DHT22;33686;48.770;9.186;2023-10-13T06:33:31;17.80;99.90
47921;DHT22;33686;48.770;9.186;2023-10-13T06:36:02;17.90;99.90
47921;DHT22;33686;48.770;9.186;2023-10-13T06:38:29;17.90;99.90
47921;DHT22;33686;48.770;9.186;2023-10-13T06:41:05;18.00;99.90
47921;DHT22;33686;48.770;9.186;2023-10-13T06:43:36;18.30;99.90
47921;DHT22;33686;48.770;9.186;2023-10-13T06:46:11;18.60;99.90
47921;DHT22;33686;48.770;9.186;2023-10-13T06:48:41;19.30;99.90
47921;DHT22;33686;48.770;9.186;2023-10-13T06:51:08;19.50;99.90
47921;DHT22;33686;48.770;9.186;2023-10-13T06:53:52;20.20;99.90
47921;DHT22;33686;48.770;9.186;2023-10-13T06:56:21;20.60;99.90
47921;DHT22;33686;48.770;9.186;2023-10-13T06:58:50;21.20;99.90
47921;DHT22;33686;48.770;9.186;2023-10-13T07:01:16;22.40;99.90
47921;DHT22;33686;48.770;9.186;2023-10-13T07:03:47;23.10;99.10
47921;DHT22;33686;48.770;9.186;2023-10-13T07:06:18;23.80;98.50
47921;DHT22;33686;48.770;9.186;2023-10-13T07:08:48;24.00;98.00
47921;DHT22;33686;48.770;9.186;2023-10-13T07:11:25;24.30;97.60
47921;DHT22;33686;48.770;9.186;2023-10-13T07:14:00;24.70;97.80
47921;DHT22;33686;48.770;9.186;2023-10-13T07:16:35;24.70;96.80
47921;DHT22;33686;48.770;9.186;2023-10-13T07:19:01;26.00;96.10
47921;DHT22;33686;48.770;9.186;2023-10-13T07:21:32;26.60;94.90
47921;DHT22;33686;48.770;9.186;2023-10-13T07:23:57;27.00;94.70
47921;DHT22;33686;48.770;9.186;2023-10-13T07:26:33;27.60;93.70
47921;DHT22;33686;48.770;9.186;2023-10-13T07:28:59;28.00;93.20
47921;DHT22;33686;48.770;9.186;2023-10-13T07:31:25;28.00;92.60
47921;DHT22;33686;48.770;9.186;2023-10-13T07:33:52;27.80;93.10
47921;DHT22;33686;48.770;9.186;2023-10-13T07:36:19;27.50;92.90
47921;DHT22;33686;48.770;9.186;2023-10-13T07:39:04;28.00;92.40
47921;DHT22;33686;48.770;9.186;2023-10-13T07:41:48;27.80;91.80
47921;DHT22;33686;48.770;9.186;2023-10-13T07:44:20;28.40;91.70
47921;DHT22;33686;48.770;9.186;2023-10-13T07:46:50;28.20;91.20
47921;DHT22;33686;48.770;9.186;2023-10-13T07:49:30;28.20;91.30
47921;DHT22;33686;48.770;9.186;2023-10-13T07:52:00;28.30;91.00
47921;DHT22;33686;48.770;9.186;2023-10-13T07:54:52;28.70;90.80
47921;DHT22;33686;48.770;9.186;2023-10-13T07:57:36;28.90;90.60
47921;DHT22;33686;48.770;9.186;2023-10-13T08:00:01;29.20;90.50
47921;DHT22;33686;48.770;9.186;2023-10-13T08:02:58;29.00;90.40
47921;DHT22;33686;48.770;9.186;2023-10-13T08:05:35;29.60;89.50
47921;DHT22;33686;48.770;9.186;2023-10-13T08:08:19;29.30;88.90
47921;DHT22;33686;48.770;9.186;2023-10-13T08:10:44;29.30;88.80
47921;DHT22;33686;48.770;9.186;2023-10-13T08:13:11;29.80;88.00
47921;DHT22;33686;48.770;9.186;2023-10-13T08:15:41;29.60;87.70
47921;DHT22;33686;48.770;9.186;2023-10-13T08:18:16;28.60;88.20
47921;DHT22;33686;48.770;9.186;2023-10-13T08:20:57;28.90;88.90
47921;DHT22;33686;48.770;9.186;2023-10-13T08:23:31;28.50;89.20
47921;DHT22;33686;48.770;9.186;2023-10-13T08:26:20;29.00;88.30
47921;DHT22;33686;48.770;9.186;2023-10-13T08:29:17;28.80;88.80
47921;DHT22;33686;48.770;9.186;2023-10-13T08:31:50;29.30;88.70
47921;DHT22;33686;48.770;9.186;2023-10-13T08:34:31;29.60;88.20
47921;DHT22;33686;48.770;9.186;2023-10-13T08:37:09;30.00;87.20
47921;DHT22;33686;48.770;9.186;2023-10-13T08:39:47;29.70;87.10
47921;DHT22;33686;48.770;9.186;2023-10-13T08:42:29;29.70;86.30
47921;DHT22;33686;48.770;9.186;2023-10-13T08:45:07;29.80;86.30
47921;DHT22;33686;48.770;9.186;2023-10-13T08:47:47;29.80;85.00
47921;DHT22;33686;48.770;9.186;2023-10-13T08:50:20;29.90;84.90
47921;DHT22;33686;48.770;9.186;2023-10-13T08:53:06;29.80;84.10
47921;DHT22;33686;48.770;9.186;2023-10-13T08:56:08;29.40;84.40
47921;DHT22;33686;48.770;9.186;2023-10-13T08:58:47;29.70;83.30
47921;DHT22;33686;48.770;9.186;2023-10-13T09:01:23;28.90;83.60
47921;DHT22;33686;48.770;9.186;2023-10-13T09:04:04;28.60;83.90
47921;DHT22;33686;48.770;9.186;2023-10-13T09:06:58;27.80;84.00
47921;DHT22;33686;48.770;9.186;2023-10-13T09:12:17;27.40;84.70
47921;DHT22;33686;48.770;9.186;2023-10-13T09:14:51;27.70;84.60
47921;DHT22;33686;48.770;9.186;2023-10-13T09:17:25;27.40;84.80
47921;DHT22;33686;48.770;9.186;2023-10-13T09:20:04;27.40;85.10
47921;DHT22;33686;48.770;9.186;2023-10-13T09:22:59;27.00;85.20
47921;DHT22;33686;48.770;9.186;2023-10-13T09:30:27;26.50;85.30
47921;DHT22;33686;48.770;9.186;2023-10-13T09:35:27;26.40;85.30
47921;DHT22;33686;48.770;9.186;2023-10-13T09:37:53;26.50;85.10
47921;DHT22;33686;48.770;9.186;2023-10-13T09:40:22;26.60;85.30
47921;DHT22;33686;48.770;9.186;2023-10-13T09:43:10;26.20;85.00
47921;DHT22;33686;48.770;9.186;2023-10-13T09:45:41;26.00;85.60
47921;DHT22;33686;48.770;9.186;2023-10-13T09:48:22;25.80;85.90
47921;DHT22;33686;48.770;9.186;2023-10-13T09:50:54;25.80;85.90
47921;DHT22;33686;48.770;9.186;2023-10-13T09:53:23;25.70;86.10
47921;DHT22;33686;48.770;9.186;2023-10-13T09:55:58;25.80;86.20
47921;DHT22;33686;48.770;9.186;2023-10-13T09:58:36;25.70;86.20
47921;DHT22;33686;48.770;9.186;2023-10-13T10:01:02;25.90;86.40
47921;DHT22;33686;48.770;9.186;2023-10-13T10:03:45;25.80;86.00
47921;DHT22;33686;48.770;9.186;2023-10-13T10:06:25;25.70;86.30
47921;DHT22;33686;48.770;9.186;2023-10-13T10:09:04;25.60;86.70
47921;DHT22;33686;48.770;9.186;2023-10-13T10:11:48;25.70;86.60
47921;DHT22;33686;48.770;9.186;2023-10-13T10:14:18;25.60;86.70
47921;DHT22;33686;48.770;9.186;2023-10-13T10:19:18;25.70;86.70
47921;DHT22;33686;48.770;9.186;2023-10-13T10:21:43;25.70;87.00
47921;DHT22;33686;48.770;9.186;2023-10-13T10:24:21;25.80;86.70
47921;DHT22;33686;48.770;9.186;2023-10-13T10:26:56;25.70;86.10
47921;DHT22;33686;48.770;9.186;2023-10-13T10:29:21;25.60;85.80
47921;DHT22;33686;48.770;9.186;2023-10-13T10:31:47;25.50;86.20
47921;DHT22;33686;48.770;9.186;2023-10-13T10:34:14;25.60;86.60
47921;DHT22;33686;48.770;9.186;2023-10-13T10:36:40;25.70;86.80
47921;DHT22;33686;48.770;9.186;2023-10-13T10:39:08;26.00;86.30
47921;DHT22;33686;48.770;9.186;2023-10-13T10:41:35;26.00;85.30
47921;DHT22;33686;48.770;9.186;2023-10-13T10:44:17;26.10;85.30
47921;DHT22;33686;48.770;9.186;2023-10-13T10:47:11;26.00;85.30
47921;DHT22;33686;48.770;9.186;2023-10-13T10:49:45;26.00;85.50
47921;DHT22;33686;48.770;9.186;2023-10-13T10:52:11;26.10;85.50
47921;DHT22;33686;48.770;9.186;2023-10-13T10:54:44;26.00;85.50
47921;DHT22;33686;48.770;9.186;2023-10-13T10:57:10;26.10;85.80
47921;DHT22;33686;48.770;9.186;2023-10-13T10:59:43;26.20;85.40
47921;DHT22;33686;48.770;9.186;2023-10-13T11:02:08;26.10;85.60
47921;DHT22;33686;48.770;9.186;2023-10-13T11:04:34;26.20;86.40
47921;DHT22;33686;48.770;9.186;2023-10-13T11:07:06;26.10;85.40
47921;DHT22;33686;48.770;9.186;2023-10-13T11:09:32;26.10;85.30
47921;DHT22;33686;48.770;9.186;2023-10-13T11:12:12;26.00;85.50
47921;DHT22;33686;48.770;9.186;2023-10-13T11:14:41;26.10;85.30
47921;DHT22;33686;48.770;9.186;2023-10-13T11:17:08;26.30;85.30
47921;DHT22;33686;48.770;9.186;2023-10-13T11:19:44;26.40;85.20
47921;DHT22;33686;48.770;9.186;2023-10-13T11:22:11;26.40;85.10
47921;DHT22;33686;48.770;9.186;2023-10-13T11:24:40;26.50;84.60
47921;DHT22;33686;48.770;9.186;2023-10-13T11:27:13;26.50;84.70
47921;DHT22;33686;48.770;9.186;2023-10-13T11:29:41;26.50;84.80
47921;DHT22;33686;48.770;9.186;2023-10-13T11:32:07;26.40;85.00
47921;DHT22;33686;48.770;9.186;2023-10-13T11:34:33;26.50;84.90
47921;DHT22;33686;48.770;9.186;2023-10-13T11:37:06;26.50;85.10
47921;DHT22;33686;48.770;9.186;2023-10-13T11:39:51;26.40;84.40
47921;DHT22;33686;48.770;9.186;2023-10-13T11:42:17;26.40;84.30
47921;DHT22;33686;48.770;9.186;2023-10-13T11:44:43;26.40;84.30
47921;DHT22;33686;48.770;9.186;2023-10-13T11:47:09;26.40;84.20
47921;DHT22;33686;48.770;9.186;2023-10-13T11:49:57;26.50;84.30
47921;DHT22;33686;48.770;9.186;2023-10-13T11:52:24;26.60;84.20
47921;DHT22;33686;48.770;9.186;2023-10-13T11:54:52;26.60;84.00
47921;DHT22;33686;48.770;9.186;2023-10-13T11:57:17;26.60;83.90
47921;DHT22;33686;48.770;9.186;2023-10-13T11:59:45;26.70;83.80
47921;DHT22;33686;48.770;9.186;2023-10-13T12:02:18;26.70;83.70
47921;DHT22;33686;48.770;9.186;2023-10-13T12:04:52;26.60;83.90
47921;DHT22;33686;48.770;9.186;2023-10-13T12:07:20;26.60;83.90
47921;DHT22;33686;48.770;9.186;2023-10-13T12:09:52;26.60;84.40
47921;DHT22;33686;48.770;9.186;2023-10-13T12:12:20;26.60;84.40
47921;DHT22;33686;48.770;9.186;2023-10-13T12:14:46;26.60;84.00
47921;DHT22;33686;48.770;9.186;2023-10-13T12:17:18;26.60;83.50
47921;DHT22;33686;48.770;9.186;2023-10-13T12:19:56;26.60;83.30
47921;DHT22;33686;48.770;9.186;2023-10-13T12:22:22;26.60;83.30
47921;DHT22;33686;48.770;9.186;2023-10-13T12:24:54;26.60;83.20
47921;DHT22;33686;48.770;9.186;2023-10-13T12:27:20;26.60;83.30
47921;DHT22;33686;48.770;9.186;2023-10-13T12:32:12;26.70;83.10
47921;DHT22;33686;48.770;9.186;2023-10-13T12:34:39;26.80;82.90
47921;DHT22;33686;48.770;9.186;2023-10-13T12:37:23;26.70;83.10
47921;DHT22;33686;48.770;9.186;2023-10-13T12:40:04;26.80;83.60
47921;DHT22;33686;48.770;9.186;2023-10-13T12:42:49;26.90;83.50
47921;DHT22;33686;48.770;9.186;2023-10-13T12:45:33;26.90;83.50
47921;DHT22;33686;48.770;9.186;2023-10-13T12:48:21;26.90;83.70
47921;DHT22;33686;48.770;9.186;2023-10-13T12:51:05;27.00;83.10
47921;DHT22;33686;48.770;9.186;2023-10-13T12:53:49;27.10;82.90
47921;DHT22;33686;48.770;9.186;2023-10-13T12:56:15;27.10;82.70
47921;DHT22;33686;48.770;9.186;2023-10-13T12:58:43;27.20;82.80
47921;DHT22;33686;48.770;9.186;2023-10-13T13:01:18;27.30;82.70
47921;DHT22;33686;48.770;9.186;2023-10-13T13:03:46;27.20;82.40
47921;DHT22;33686;48.770;9.186;2023-10-13T13:06:18;27.20;82.10
47921;DHT22;33686;48.770;9.186;2023-10-13T13:08:53;27.30;82.00
47921;DHT22;33686;48.770;9.186;2023-10-13T13:11:19;27.30;82.30
47921;DHT22;33686;48.770;9.186;2023-10-13T13:13:44;27.30;82.00
47921;DHT22;33686;48.770;9.186;2023-10-13T13:16:15;27.30;81.90
47921;DHT22;33686;48.770;9.186;2023-10-13T13:18:43;27.40;81.90
47921;DHT22;33686;48.770;9.186;2023-10-13T13:21:09;27.50;82.10
47921;DHT22;33686;48.770;9.186;2023-10-13T13:23:37;27.60;81.10
47921;DHT22;33686;48.770;9.186;2023-10-13T13:26:08;27.50;81.40
47921;DHT22;33686;48.770;9.186;2023-10-13T13:28:44;27.60;81.50
47921;DHT22;33686;48.770;9.186;2023-10-13T13:31:10;27.60;80.20
47921;DHT22;33686;48.770;9.186;2023-10-13T13:33:38;27.60;80.00
47921;DHT22;33686;48.770;9.186;2023-10-13T13:36:12;27.60;79.20
47921;DHT22;33686;48.770;9.186;2023-10-13T13:38:39;27.60;78.80
47921;DHT22;33686;48.770;9.186;2023-10-13T13:41:11;27.60;78.80
47921;DHT22;33686;48.770;9.186;2023-10-13T13:43:40;27.60;79.00
47921;DHT22;33686;48.770;9.186;2023-10-13T13:46:18;27.60;79.10
47921;DHT22;33686;48.770;9.186;2023-10-13T13:48:44;27.60;78.20
47921;DHT22;33686;48.770;9.186;2023-10-13T13:51:13;27.60;78.40
47921;DHT22;33686;48.770;9.186;2023-10-13T13:53:45;27.50;79.20
47921;DHT22;33686;48.770;9.186;2023-10-13T13:56:11;27.50;78.80
47921;DHT22;33686;48.770;9.186;2023-10-13T13:58:40;27.50;79.00
47921;DHT22;33686;48.770;9.186;2023-10-13T14:01:06;27.50;79.00
47921;DHT22;33686;48.770;9.186;2023-10-13T14:03:39;27.60;78.50
47921;DHT22;33686;48.770;9.186;2023-10-13T14:06:11;27.50;78.80
47921;DHT22;33686;48.770;9.186;2023-10-13T14:08:43;27.50;78.60
47921;DHT22;33686;48.770;9.186;2023-10-13T14:11:10;27.50;78.50
47921;DHT22;33686;48.770;9.186;2023-10-13T14:13:39;27.40;78.70
47921;DHT22;33686;48.770;9.186;2023-10-13T14:16:21;27.40;78.10
47921;DHT22;33686;48.770;9.186;2023-10-13T14:18:48;27.30;77.90
47921;DHT22;33686;48.770;9.186;2023-10-13T14:21:14;27.20;77.80
47921;DHT22;33686;48.770;9.186;2023-10-13T14:23:48;27.30;78.30
47921;DHT22;33686;48.770;9.186;2023-10-13T14:26:15;27.20;78.30
47921;DHT22;33686;48.770;9.186;2023-10-13T14:28:46;27.20;77.80
47921;DHT22;33686;48.770;9.186;2023-10-13T14:31:27;27.20;77.60
47921;DHT22;33686;48.770;9.186;2023-10-13T14:33:53;27.20;77.90
47921;DHT22;33686;48.770;9.186;2023-10-13T14:36:18;27.20;77.40
47921;DHT22;33686;48.770;9.186;2023-10-13T14:38:46;27.10;77.30
47921;DHT22;33686;48.770;9.186;2023-10-13T14:41:18;27.10;77.10
47921;DHT22;33686;48.770;9.186;2023-10-13T14:43:44;27.10;77.00
47921;DHT22;33686;48.770;9.186;2023-10-13T14:46:16;27.10;76.30
47921;DHT22;33686;48.770;9.186;2023-10-13T14:48:44;27.00;76.70
47921;DHT22;33686;48.770;9.186;2023-10-13T14:51:10;26.90;76.70
47921;DHT22;33686;48.770;9.186;2023-10-13T14:53:39;26.90;76.90
47921;DHT22;33686;48.770;9.186;2023-10-13T14:56:08;26.80;76.90
47921;DHT22;33686;48.770;9.186;2023-10-13T14:58:34;26.90;76.10
47921;DHT22;33686;48.770;9.186;2023-10-13T15:00:59;26.80;76.20
47921;DHT22;33686;48.770;9.186;2023-10-13T15:03:26;26.80;75.60
47921;DHT22;33686;48.770;9.186;2023-10-13T15:05:51;26.80;75.20
47921;DHT22;33686;48.770;9.186;2023-10-13T15:08:20;26.80;74.40
47921;DHT22;33686;48.770;9.186;2023-10-13T15:10:45;26.80;74.50
47921;DHT22;33686;48.770;9.186;2023-10-13T15:13:11;26.70;74.70
47921;DHT22;33686;48.770;9.186;2023-10-13T15:15:36;26.70;74.90
47921;DHT22;33686;48.770;9.186;2023-10-13T15:18:02;26.80;74.50
47921;DHT22;33686;48.770;9.186;2023-10-13T15:20:28;26.70;74.30
47921;DHT22;33686;48.770;9.186;2023-10-13T15:22:53;26.60;74.50
47921;DHT22;33686;48.770;9.186;2023-10-13T15:25:25;26.50;74.30
47921;DHT22;33686;48.770;9.186;2023-10-13T15:27:58;26.50;74.40
47921;DHT22;33686;48.770;9.186;2023-10-13T15:30:27;26.50;74.40
47921;DHT22;33686;48.770;9.186;2023-10-13T15:33:08;26.40;74.80
47921;DHT22;33686;48.770;9.186;2023-10-13T15:35:33;26.40;74.50
47921;DHT22;33686;48.770;9.186;2023-10-13T15:37:59;26.30;74.40
47921;DHT22;33686;48.770;9.186;2023-10-13T15:40:26;26.30;74.80
47921;DHT22;33686;48.770;9.186;2023-10-13T15:42:53;26.20;74.70
47921;DHT22;33686;48.770;9.186;2023-10-13T15:45:25;26.10;74.80
47921;DHT22;33686;48.770;9.186;2023-10-13T15:47:56;26.10;75.60
47921;DHT22;33686;48.770;9.186;2023-10-13T15:50:21;26.00;75.00
47921;DHT22;33686;48.770;9.186;2023-10-13T15:52:47;25.90;74.70
47921;DHT22;33686;48.770;9.186;2023-10-13T15:55:13;25.90;74.90
47921;DHT22;33686;48.770;9.186;2023-10-13T15:57:39;25.70;75.20
47921;DHT22;33686;48.770;9.186;2023-10-13T16:00:05;25.70;75.10
47921;DHT22;33686;48.770;9.186;2023-10-13T16:02:55;25.70;74.50
47921;DHT22;33686;48.770;9.186;2023-10-13T16:05:22;25.60;75.20
47921;DHT22;33686;48.770;9.186;2023-10-13T16:07:50;25.50;74.60
47921;DHT22;33686;48.770;9.186;2023-10-13T16:10:16;25.50;75.30
47921;DHT22;33686;48.770;9.186;2023-10-13T16:12:42;25.50;75.40
47921;DHT22;33686;48.770;9.186;2023-10-13T16:15:10;25.30;75.20
47921;DHT22;33686;48.770;9.186;2023-10-13T16:17:39;25.20;75.30
47921;DHT22;33686;48.770;9.186;2023-10-13T16:20:06;25.20;74.80
47921;DHT22;33686;48.770;9.186;2023-10-13T16:22:44;25.30;74.60
47921;DHT22;33686;48.770;9.186;2023-10-13T16:25:11;25.20;74.70
47921;DHT22;33686;48.770;9.186;2023-10-13T16:27:43;25.10;75.00
47921;DHT22;33686;48.770;9.186;2023-10-13T16:30:09;25.00;75.10
47921;DHT22;33686;48.770;9.186;2023-10-13T16:32:35;24.80;75.50
47921;DHT22;33686;48.770;9.186;2023-10-13T16:35:03;24.70;75.70
47921;DHT22;33686;48.770;9.186;2023-10-13T16:37:29;24.70;76.10
47921;DHT22;33686;48.770;9.186;2023-10-13T16:39:56;24.60;76.00
47921;DHT22;33686;48.770;9.186;2023-10-13T16:42:32;24.60;76.10
47921;DHT22;33686;48.770;9.186;2023-10-13T16:44:59;24.50;76.60
47921;DHT22;33686;48.770;9.186;2023-10-13T16:47:42;24.30;77.00
47921;DHT22;33686;48.770;9.186;2023-10-13T16:50:09;24.10;77.10
47921;DHT22;33686;48.770;9.186;2023-10-13T16:52:35;24.30;77.50
47921;DHT22;33686;48.770;9.186;2023-10-13T16:55:00;24.10;78.20
47921;DHT22;33686;48.770;9.186;2023-10-13T16:57:26;23.90;78.70
47921;DHT22;33686;48.770;9.186;2023-10-13T16:59:51;23.90;79.00
47921;DHT22;33686;48.770;9.186;2023-10-13T17:02:17;23.80;79.10
47921;DHT22;33686;48.770;9.186;2023-10-13T17:04:42;23.60;79.50
47921;DHT22;33686;48.770;9.186;2023-10-13T17:07:08;23.60;79.50
47921;DHT22;33686;48.770;9.186;2023-10-13T17:09:33;23.60;79.50
47921;DHT22;33686;48.770;9.186;2023-10-13T17:11:59;23.60;79.70
47921;DHT22;33686;48.770;9.186;2023-10-13T17:14:25;23.50;80.60
47921;DHT22;33686;48.770;9.186;2023-10-13T17:16:50;23.50;79.90
47921;DHT22;33686;48.770;9.186;2023-10-13T17:19:16;23.40;80.30
47921;DHT22;33686;48.770;9.186;2023-10-13T17:21:41;23.40;80.70
47921;DHT22;33686;48.770;9.186;2023-10-13T17:24:09;23.30;81.30
47921;DHT22;33686;48.770;9.186;2023-10-13T17:26:36;23.30;81.20
47921;DHT22;33686;48.770;9.186;2023-10-13T17:29:02;23.20;81.80
47921;DHT22;33686;48.770;9.186;2023-10-13T17:31:34;23.20;81.60
47921;DHT22;33686;48.770;9.186;2023-10-13T17:34:00;23.10;82.50
47921;DHT22;33686;48.770;9.186;2023-10-13T17:36:25;23.00;82.30
47921;DHT22;33686;48.770;9.186;2023-10-13T17:38:53;23.10;82.70
47921;DHT22;33686;48.770;9.186;2023-10-13T17:41:19;23.20;82.10
47921;DHT22;33686;48.770;9.186;2023-10-13T17:43:46;23.20;82.30
47921;DHT22;33686;48.770;9.186;2023-10-13T17:46:12;23.30;82.70
47921;DHT22;33686;48.770;9.186;2023-10-13T17:48:38;23.20;83.00
47921;DHT22;33686;48.770;9.186;2023-10-13T17:51:07;23.20;83.80
47921;DHT22;33686;48.770;9.186;2023-10-13T17:53:36;23.20;84.40
47921;DHT22;33686;48.770;9.186;2023-10-13T17:56:03;23.10;85.10
47921;DHT22;33686;48.770;9.186;2023-10-13T17:58:31;23.10;85.30
47921;DHT22;33686;48.770;9.186;2023-10-13T18:00:57;23.10;85.50
47921;DHT22;33686;48.770;9.186;2023-10-13T18:03:22;23.20;85.20
47921;DHT22;33686;48.770;9.186;2023-10-13T18:05:48;23.10;85.40
47921;DHT22;33686;48.770;9.186;2023-10-13T18:08:13;23.00;86.00
47921;DHT22;33686;48.770;9.186;2023-10-13T18:10:39;23.00;86.10
47921;DHT22;33686;48.770;9.186;2023-10-13T18:13:09;23.00;86.20
47921;DHT22;33686;48.770;9.186;2023-10-13T18:15:34;22.90;86.00
47921;DHT22;33686;48.770;9.186;2023-10-13T18:18:00;22.90;86.10
47921;DHT22;33686;48.770;9.186;2023-10-13T18:20:27;22.90;86.80
47921;DHT22;33686;48.770;9.186;2023-10-13T18:22:53;22.80;86.90
47921;DHT22;33686;48.770;9.186;2023-10-13T18:25:19;22.80;87.60
47921;DHT22;33686;48.770;9.186;2023-10-13T18:27:49;22.90;87.70
47921;DHT22;33686;48.770;9.186;2023-10-13T18:30:15;22.80;88.10
47921;DHT22;33686;48.770;9.186;2023-10-13T18:32:41;22.70;88.30
47921;DHT22;33686;48.770;9.186;2023-10-13T18:35:07;22.60;88.80
47921;DHT22;33686;48.770;9.186;2023-10-13T18:37:39;22.60;89.10
47921;DHT22;33686;48.770;9.186;2023-10-13T18:40:10;22.50;89.50
47921;DHT22;33686;48.770;9.186;2023-10-13T18:42:36;22.50;89.80
47921;DHT22;33686;48.770;9.186;2023-10-13T18:45:09;22.40;90.00
47921;DHT22;33686;48.770;9.186;2023-10-13T18:47:36;22.30;90.10
47921;DHT22;33686;48.770;9.186;2023-10-13T18:50:01;22.30;90.20
47921;DHT22;33686;48.770;9.186;2023-10-13T18:52:27;22.40;90.50
47921;DHT22;33686;48.770;9.186;2023-10-13T18:54:53;22.20;90.60
47921;DHT22;33686;48.770;9.186;2023-10-13T18:57:19;22.10;90.50
47921;DHT22;33686;48.770;9.186;2023-10-13T18:59:46;22.10;90.70
47921;DHT22;33686;48.770;9.186;2023-10-13T19:02:11;22.10;90.80
47921;DHT22;33686;48.770;9.186;2023-10-13T19:04:37;22.10;90.80
47921;DHT22;33686;48.770;9.186;2023-10-13T19:07:05;22.10;90.70
47921;DHT22;33686;48.770;9.186;2023-10-13T19:09:31;22.10;90.70
47921;DHT22;33686;48.770;9.186;2023-10-13T19:11:56;22.00;90.70
47921;DHT22;33686;48.770;9.186;2023-10-13T19:14:23;22.00;90.80
47921;DHT22;33686;48.770;9.186;2023-10-13T19:16:49;21.90;90.80
47921;DHT22;33686;48.770;9.186;2023-10-13T19:19:15;21.90;91.00
47921;DHT22;33686;48.770;9.186;2023-10-13T19:21:41;21.90;90.80
47921;DHT22;33686;48.770;9.186;2023-10-13T19:24:11;21.90;90.80
47921;DHT22;33686;48.770;9.186;2023-10-13T19:26:37;21.90;90.90
47921;DHT22;33686;48.770;9.186;2023-10-13T19:29:02;21.90;90.80
47921;DHT22;33686;48.770;9.186;2023-10-13T19:31:33;21.90;90.40
47921;DHT22;33686;48.770;9.186;2023-10-13T19:33:59;21.90;90.20
47921;DHT22;33686;48.770;9.186;2023-10-13T19:36:28;21.90;89.50
47921;DHT22;33686;48.770;9.186;2023-10-13T19:38:57;21.90;90.10
47921;DHT22;33686;48.770;9.186;2023-10-13T19:41:23;21.90;90.30
47921;DHT22;33686;48.770;9.186;2023-10-13T19:43:52;21.80;90.10
47921;DHT22;33686;48.770;9.186;2023-10-13T19:46:22;21.80;90.10
47921;DHT22;33686;48.770;9.186;2023-10-13T19:48:48;21.80;90.30
47921;DHT22;33686;48.770;9.186;2023-10-13T19:51:13;21.90;89.40
47921;DHT22;33686;48.770;9.186;2023-10-13T19:53:39;21.80;89.10
47921;DHT22;33686;48.770;9.186;2023-10-13T19:56:14;21.90;88.90
47921;DHT22;33686;48.770;9.186;2023-10-13T19:58:42;21.90;88.00
47921;DHT22;33686;48.770;9.186;2023-10-13T20:01:12;21.90;87.50
47921;DHT22;33686;48.770;9.186;2023-10-13T20:03:41;21.90;87.50
47921;DHT22;33686;48.770;9.186;2023-10-13T20:06:10;21.90;87.10
47921;DHT22;33686;48.770;9.186;2023-10-13T20:08:37;21.90;86.90
47921;DHT22;33686;48.770;9.186;2023-10-13T20:11:06;22.00;86.50
47921;DHT22;33686;48.770;9.186;2023-10-13T20:13:38;22.00;86.20
47921;DHT22;33686;48.770;9.186;2023-10-13T20:16:05;22.00;85.70
47921;DHT22;33686;48.770;9.186;2023-10-13T20:18:32;22.00;86.00
47921;DHT22;33686;48.770;9.186;2023-10-13T20:21:01;22.00;84.80
47921;DHT22;33686;48.770;9.186;2023-10-13T20:23:29;22.10;84.90
47921;DHT22;33686;48.770;9.186;2023-10-13T20:25:55;22.10;84.80
47921;DHT22;33686;48.770;9.186;2023-10-13T20:28:21;22.10;84.40
47921;DHT22;33686;48.770;9.186;2023-10-13T20:30:48;22.10;84.50
47921;DHT22;33686;48.770;9.186;2023-10-13T20:33:13;22.10;83.90
47921;DHT22;33686;48.770;9.186;2023-10-13T20:35:49;22.10;84.00
47921;DHT22;33686;48.770;9.186;2023-10-13T20:38:14;22.10;83.50
47921;DHT22;33686;48.770;9.186;2023-10-13T20:40:44;22.20;83.30
47921;DHT22;33686;48.770;9.186;2023-10-13T20:43:10;22.10;83.70
47921;DHT22;33686;48.770;9.186;2023-10-13T20:45:37;22.10;83.30
47921;DHT22;33686;48.770;9.186;2023-10-13T20:48:03;22.10;82.80
47921;DHT22;33686;48.770;9.186;2023-10-13T20:50:29;22.00;83.00
47921;DHT22;33686;48.770;9.186;2023-10-13T20:52:54;21.90;82.80
47921;DHT22;33686;48.770;9.186;2023-10-13T20:55:20;21.90;82.50
47921;DHT22;33686;48.770;9.186;2023-10-13T20:57:46;21.90;82.30
47921;DHT22;33686;48.770;9.186;2023-10-13T21:00:15;21.90;82.40
47921;DHT22;33686;48.770;9.186;2023-10-13T21:02:50;21.90;82.20
47921;DHT22;33686;48.770;9.186;2023-10-13T21:05:17;21.90;82.40
47921;DHT22;33686;48.770;9.186;2023-10-13T21:07:47;21.90;82.20
47921;DHT22;33686;48.770;9.186;2023-10-13T21:10:13;21.90;82.00
47921;DHT22;33686;48.770;9.186;2023-10-13T21:12:43;21.90;82.10
47921;DHT22;33686;48.770;9.186;2023-10-13T21:15:09;21.80;82.30
47921;DHT22;33686;48.770;9.186;2023-10-13T21:17:43;21.80;82.90
47921;DHT22;33686;48.770;9.186;2023-10-13T21:20:09;21.70;82.60
47921;DHT22;33686;48.770;9.186;2023-10-13T21:22:46;21.60;82.60
47921;DHT22;33686;48.770;9.186;2023-10-13T21:25:13;21.60;82.40
47921;DHT22;33686;48.770;9.186;2023-10-13T21:27:57;21.70;82.30